sensor_id;sensor_type;location;lat;lon;timestamp;P1;durP1;ratioP1;P2;durP2;ratioP2
13309;SDS011;6723;48.256;16.402;2023-02-05T00:01:21;2.43;;;1.80;;
13309;SDS011;6723;48.256;16.402;2023-02-05T00:03:47;3.63;;;1.87;;
13309;SDS011;6723;48.256;16.402;2023-02-05T00:06:13;2.00;;;1.60;;
13309;SDS011;6723;48.256;16.402;2023-02-05T00:08:39;1.57;;;1.40;;
13309;SDS011;6723;48.256;16.402;2023-02-05T00:11:05;2.03;;;1.63;;
13309;SDS011;6723;48.256;16.402;2023-02-05T00:13:37;2.13;;;1.60;;
13309;SDS011;6723;48.256;16.402;2023-02-05T00:16:15;2.20;;;1.70;;
13309;SDS011;6723;48.256;16.402;2023-02-05T00:18:42;2.23;;;1.50;;
13309;SDS011;6723;48.256;16.402;2023-02-05T00:21:10;2.40;;;1.50;;
13309;SDS011;6723;48.256;16.402;2023-02-05T00:23:36;2.10;;;1.50;;
13309;SDS011;6723;48.256;16.402;2023-02-05T00:26:03;2.10;;;1.70;;
13309;SDS011;6723;48.256;16.402;2023-02-05T00:28:30;1.87;;;1.50;;
13309;SDS011;6723;48.256;16.402;2023-02-05T00:30:57;2.70;;;1.70;;
13309;SDS011;6723;48.256;16.402;2023-02-05T00:33:23;2.00;;;1.57;;
13309;SDS011;6723;48.256;16.402;2023-02-05T00:35:49;2.30;;;1.50;;
13309;SDS011;6723;48.256;16.402;2023-02-05T00:38:15;2.90;;;1.50;;
13309;SDS011;6723;48.256;16.402;2023-02-05T00:40:42;1.97;;;1.30;;
13309;SDS011;6723;48.256;16.402;2023-02-05T00:43:08;4.90;;;1.87;;
13309;SDS011;6723;48.256;16.402;2023-02-05T00:45:34;3.50;;;1.30;;
13309;SDS011;6723;48.256;16.402;2023-02-05T00:48:01;2.43;;;1.60;;
13309;SDS011;6723;48.256;16.402;2023-02-05T00:50:28;2.90;;;1.43;;
13309;SDS011;6723;48.256;16.402;2023-02-05T00:52:54;2.50;;;1.73;;
13309;SDS011;6723;48.256;16.402;2023-02-05T00:55:20;1.90;;;1.60;;
13309;SDS011;6723;48.256;16.402;2023-02-05T00:57:46;1.50;;;1.27;;
13309;SDS011;6723;48.256;16.402;2023-02-05T01:00:12;2.37;;;1.50;;
13309;SDS011;6723;48.256;16.402;2023-02-05T01:02:38;1.57;;;1.40;;
13309;SDS011;6723;48.256;16.402;2023-02-05T01:05:04;2.03;;;1.33;;
13309;SDS011;6723;48.256;16.402;2023-02-05T01:07:30;2.20;;;1.37;;
13309;SDS011;6723;48.256;16.402;2023-02-05T01:09:56;1.57;;;1.20;;
13309;SDS011;6723;48.256;16.402;2023-02-05T01:12:22;2.43;;;1.70;;
13309;SDS011;6723;48.256;16.402;2023-02-05T01:14:48;1.40;;;1.20;;
13309;SDS011;6723;48.256;16.402;2023-02-05T01:17:16;2.77;;;1.57;;
13309;SDS011;6723;48.256;16.402;2023-02-05T01:19:42;1.70;;;1.37;;
13309;SDS011;6723;48.256;16.402;2023-02-05T01:22:07;3.83;;;1.60;;
13309;SDS011;6723;48.256;16.402;2023-02-05T01:24:35;3.13;;;1.60;;
13309;SDS011;6723;48.256;16.402;2023-02-05T01:27:02;2.07;;;1.30;;
13309;SDS011;6723;48.256;16.402;2023-02-05T01:29:28;2.17;;;1.43;;
13309;SDS011;6723;48.256;16.402;2023-02-05T01:31:55;1.57;;;1.30;;
13309;SDS011;6723;48.256;16.402;2023-02-05T01:34:21;3.43;;;1.50;;
13309;SDS011;6723;48.256;16.402;2023-02-05T01:36:47;2.87;;;1.60;;
13309;SDS011;6723;48.256;16.402;2023-02-05T01:39:13;1.70;;;1.10;;
13309;SDS011;6723;48.256;16.402;2023-02-05T01:41:39;2.07;;;1.23;;
13309;SDS011;6723;48.256;16.402;2023-02-05T01:46:42;1.33;;;1.13;;
13309;SDS011;6723;48.256;16.402;2023-02-05T01:49:14;1.53;;;1.30;;
13309;SDS011;6723;48.256;16.402;2023-02-05T01:51:44;1.53;;;1.17;;
13309;SDS011;6723;48.256;16.402;2023-02-05T01:54:12;2.13;;;1.10;;
13309;SDS011;6723;48.256;16.402;2023-02-05T01:56:40;2.47;;;1.20;;
13309;SDS011;6723;48.256;16.402;2023-02-05T01:59:19;2.80;;;1.30;;
13309;SDS011;6723;48.256;16.402;2023-02-05T02:01:49;2.67;;;1.40;;
13309;SDS011;6723;48.256;16.402;2023-02-05T02:04:19;2.17;;;1.20;;
13309;SDS011;6723;48.256;16.402;2023-02-05T02:07:01;1.60;;;1.33;;
13309;SDS011;6723;48.256;16.402;2023-02-05T02:09:28;2.07;;;1.30;;
13309;SDS011;6723;48.256;16.402;2023-02-05T02:11:54;2.50;;;1.43;;
13309;SDS011;6723;48.256;16.402;2023-02-05T02:14:22;3.33;;;1.30;;
13309;SDS011;6723;48.256;16.402;2023-02-05T02:16:55;2.00;;;1.20;;
13309;SDS011;6723;48.256;16.402;2023-02-05T02:33:06;1.50;;;1.10;;
13309;SDS011;6723;48.256;16.402;2023-02-05T02:36:10;3.27;;;1.00;;
13309;SDS011;6723;48.256;16.402;2023-02-05T02:39:31;2.03;;;1.17;;
13309;SDS011;6723;48.256;16.402;2023-02-05T02:41:39;1.27;;;1.10;;
13309;SDS011;6723;48.256;16.402;2023-02-05T02:44:13;2.77;;;1.20;;
13309;SDS011;6723;48.256;16.402;2023-02-05T02:46:49;1.37;;;1.07;;
13309;SDS011;6723;48.256;16.402;2023-02-05T02:49:23;2.73;;;0.90;;
13309;SDS011;6723;48.256;16.402;2023-02-05T02:52:20;2.40;;;1.10;;
13309;SDS011;6723;48.256;16.402;2023-02-05T02:54:49;2.03;;;1.17;;
13309;SDS011;6723;48.256;16.402;2023-02-05T02:57:20;1.87;;;1.20;;
13309;SDS011;6723;48.256;16.402;2023-02-05T02:59:50;3.20;;;1.20;;
13309;SDS011;6723;48.256;16.402;2023-02-05T03:02:18;2.07;;;0.80;;
13309;SDS011;6723;48.256;16.402;2023-02-05T03:04:51;1.93;;;1.13;;
13309;SDS011;6723;48.256;16.402;2023-02-05T03:07:36;1.73;;;1.20;;
13309;SDS011;6723;48.256;16.402;2023-02-05T03:12:41;1.73;;;1.20;;
13309;SDS011;6723;48.256;16.402;2023-02-05T03:15:07;2.10;;;1.20;;
13309;SDS011;6723;48.256;16.402;2023-02-05T03:17:34;2.60;;;1.43;;
13309;SDS011;6723;48.256;16.402;2023-02-05T03:20:05;1.73;;;0.90;;
13309;SDS011;6723;48.256;16.402;2023-02-05T03:22:37;2.00;;;1.17;;
13309;SDS011;6723;48.256;16.402;2023-02-05T03:25:03;2.10;;;1.10;;
13309;SDS011;6723;48.256;16.402;2023-02-05T03:27:30;1.87;;;1.20;;
13309;SDS011;6723;48.256;16.402;2023-02-05T03:29:56;3.17;;;1.30;;
13309;SDS011;6723;48.256;16.402;2023-02-05T03:35:04;2.20;;;1.20;;
13309;SDS011;6723;48.256;16.402;2023-02-05T03:37:54;2.13;;;1.10;;
13309;SDS011;6723;48.256;16.402;2023-02-05T03:44:06;1.93;;;1.30;;
13309;SDS011;6723;48.256;16.402;2023-02-05T03:54:08;1.87;;;1.30;;
13309;SDS011;6723;48.256;16.402;2023-02-05T03:56:58;2.90;;;1.40;;
13309;SDS011;6723;48.256;16.402;2023-02-05T03:59:35;2.50;;;1.43;;
13309;SDS011;6723;48.256;16.402;2023-02-05T04:02:02;3.17;;;1.40;;
13309;SDS011;6723;48.256;16.402;2023-02-05T04:04:29;3.47;;;1.67;;
13309;SDS011;6723;48.256;16.402;2023-02-05T04:06:55;2.57;;;1.40;;
13309;SDS011;6723;48.256;16.402;2023-02-05T04:09:21;2.90;;;1.50;;
13309;SDS011;6723;48.256;16.402;2023-02-05T04:11:47;3.10;;;1.23;;
13309;SDS011;6723;48.256;16.402;2023-02-05T04:14:13;1.50;;;1.10;;
13309;SDS011;6723;48.256;16.402;2023-02-05T04:16:39;3.40;;;1.30;;
13309;SDS011;6723;48.256;16.402;2023-02-05T04:19:05;2.03;;;1.40;;
13309;SDS011;6723;48.256;16.402;2023-02-05T04:21:31;1.40;;;1.20;;
13309;SDS011;6723;48.256;16.402;2023-02-05T04:23:57;2.07;;;1.20;;
13309;SDS011;6723;48.256;16.402;2023-02-05T04:26:23;2.10;;;1.30;;
13309;SDS011;6723;48.256;16.402;2023-02-05T04:28:49;1.50;;;1.10;;
13309;SDS011;6723;48.256;16.402;2023-02-05T04:31:14;2.10;;;1.30;;
13309;SDS011;6723;48.256;16.402;2023-02-05T04:33:40;1.93;;;1.30;;
13309;SDS011;6723;48.256;16.402;2023-02-05T04:36:06;1.67;;;1.20;;
13309;SDS011;6723;48.256;16.402;2023-02-05T04:38:33;1.97;;;1.30;;
13309;SDS011;6723;48.256;16.402;2023-02-05T04:40:59;1.73;;;1.10;;
13309;SDS011;6723;48.256;16.402;2023-02-05T04:43:25;1.50;;;0.93;;
13309;SDS011;6723;48.256;16.402;2023-02-05T04:45:51;1.60;;;1.00;;
13309;SDS011;6723;48.256;16.402;2023-02-05T04:48:17;1.47;;;1.00;;
13309;SDS011;6723;48.256;16.402;2023-02-05T04:50:45;1.67;;;1.27;;
13309;SDS011;6723;48.256;16.402;2023-02-05T04:53:11;1.30;;;0.97;;
13309;SDS011;6723;48.256;16.402;2023-02-05T04:55:37;1.90;;;0.90;;
13309;SDS011;6723;48.256;16.402;2023-02-05T04:58:03;1.20;;;0.93;;
13309;SDS011;6723;48.256;16.402;2023-02-05T05:00:29;1.20;;;1.00;;
13309;SDS011;6723;48.256;16.402;2023-02-05T05:02:55;1.43;;;0.83;;
13309;SDS011;6723;48.256;16.402;2023-02-05T05:05:21;1.20;;;1.00;;
13309;SDS011;6723;48.256;16.402;2023-02-05T05:07:47;1.43;;;1.00;;
13309;SDS011;6723;48.256;16.402;2023-02-05T05:10:13;1.03;;;0.83;;
13309;SDS011;6723;48.256;16.402;2023-02-05T05:12:39;2.63;;;0.90;;
13309;SDS011;6723;48.256;16.402;2023-02-05T05:15:05;2.13;;;0.80;;
13309;SDS011;6723;48.256;16.402;2023-02-05T05:17:32;2.10;;;1.00;;
13309;SDS011;6723;48.256;16.402;2023-02-05T05:19:59;1.70;;;0.73;;
13309;SDS011;6723;48.256;16.402;2023-02-05T05:22:25;1.80;;;1.03;;
13309;SDS011;6723;48.256;16.402;2023-02-05T05:24:51;1.33;;;0.97;;
13309;SDS011;6723;48.256;16.402;2023-02-05T05:27:16;1.43;;;0.83;;
13309;SDS011;6723;48.256;16.402;2023-02-05T05:29:43;1.97;;;0.90;;
13309;SDS011;6723;48.256;16.402;2023-02-05T05:32:10;1.33;;;1.03;;
13309;SDS011;6723;48.256;16.402;2023-02-05T05:34:37;1.23;;;0.90;;
13309;SDS011;6723;48.256;16.402;2023-02-05T05:37:03;1.47;;;1.00;;
13309;SDS011;6723;48.256;16.402;2023-02-05T05:39:29;1.70;;;1.00;;
13309;SDS011;6723;48.256;16.402;2023-02-05T05:42:13;2.33;;;1.10;;
13309;SDS011;6723;48.256;16.402;2023-02-05T05:44:58;1.43;;;1.00;;
13309;SDS011;6723;48.256;16.402;2023-02-05T05:47:24;0.80;;;0.80;;
13309;SDS011;6723;48.256;16.402;2023-02-05T05:49:49;1.60;;;0.90;;
13309;SDS011;6723;48.256;16.402;2023-02-05T05:52:15;1.63;;;1.00;;
13309;SDS011;6723;48.256;16.402;2023-02-05T05:54:41;2.10;;;1.10;;
13309;SDS011;6723;48.256;16.402;2023-02-05T05:57:07;1.47;;;1.00;;
13309;SDS011;6723;48.256;16.402;2023-02-05T05:59:33;1.90;;;1.30;;
13309;SDS011;6723;48.256;16.402;2023-02-05T06:01:59;3.43;;;1.07;;
13309;SDS011;6723;48.256;16.402;2023-02-05T06:04:26;1.20;;;1.10;;
13309;SDS011;6723;48.256;16.402;2023-02-05T06:06:52;2.67;;;1.20;;
13309;SDS011;6723;48.256;16.402;2023-02-05T06:09:18;1.13;;;1.00;;
13309;SDS011;6723;48.256;16.402;2023-02-05T06:11:47;2.57;;;1.00;;
13309;SDS011;6723;48.256;16.402;2023-02-05T06:14:13;1.50;;;0.77;;
13309;SDS011;6723;48.256;16.402;2023-02-05T06:16:39;1.67;;;1.07;;
13309;SDS011;6723;48.256;16.402;2023-02-05T06:19:05;1.50;;;1.00;;
13309;SDS011;6723;48.256;16.402;2023-02-05T06:21:31;1.90;;;1.00;;
13309;SDS011;6723;48.256;16.402;2023-02-05T06:23:57;1.37;;;1.17;;
13309;SDS011;6723;48.256;16.402;2023-02-05T06:26:23;1.60;;;1.20;;
13309;SDS011;6723;48.256;16.402;2023-02-05T06:28:48;1.60;;;1.10;;
13309;SDS011;6723;48.256;16.402;2023-02-05T06:31:14;1.30;;;1.10;;
13309;SDS011;6723;48.256;16.402;2023-02-05T06:33:41;1.40;;;1.00;;
13309;SDS011;6723;48.256;16.402;2023-02-05T06:36:09;1.83;;;0.90;;
13309;SDS011;6723;48.256;16.402;2023-02-05T06:38:35;2.07;;;1.13;;
13309;SDS011;6723;48.256;16.402;2023-02-05T06:41:00;1.80;;;1.30;;
13309;SDS011;6723;48.256;16.402;2023-02-05T06:43:26;3.70;;;1.07;;
13309;SDS011;6723;48.256;16.402;2023-02-05T06:45:52;2.83;;;1.10;;
13309;SDS011;6723;48.256;16.402;2023-02-05T06:48:20;1.40;;;1.00;;
13309;SDS011;6723;48.256;16.402;2023-02-05T06:50:45;2.17;;;1.03;;
13309;SDS011;6723;48.256;16.402;2023-02-05T06:53:11;1.60;;;1.10;;
13309;SDS011;6723;48.256;16.402;2023-02-05T06:55:37;2.20;;;1.10;;
13309;SDS011;6723;48.256;16.402;2023-02-05T06:58:04;1.33;;;0.93;;
13309;SDS011;6723;48.256;16.402;2023-02-05T07:00:32;2.30;;;1.30;;
13309;SDS011;6723;48.256;16.402;2023-02-05T07:02:58;1.57;;;1.03;;
13309;SDS011;6723;48.256;16.402;2023-02-05T07:05:24;1.67;;;1.20;;
13309;SDS011;6723;48.256;16.402;2023-02-05T07:07:50;1.90;;;1.37;;
13309;SDS011;6723;48.256;16.402;2023-02-05T07:10:16;1.63;;;1.30;;
13309;SDS011;6723;48.256;16.402;2023-02-05T07:12:43;2.03;;;1.20;;
13309;SDS011;6723;48.256;16.402;2023-02-05T07:15:08;3.03;;;1.40;;
13309;SDS011;6723;48.256;16.402;2023-02-05T07:17:34;3.23;;;1.40;;
13309;SDS011;6723;48.256;16.402;2023-02-05T07:20:01;2.60;;;1.03;;
13309;SDS011;6723;48.256;16.402;2023-02-05T07:22:27;3.73;;;1.57;;
13309;SDS011;6723;48.256;16.402;2023-02-05T07:24:52;1.93;;;1.30;;
13309;SDS011;6723;48.256;16.402;2023-02-05T07:27:18;2.90;;;1.50;;
13309;SDS011;6723;48.256;16.402;2023-02-05T07:29:44;2.40;;;1.40;;
13309;SDS011;6723;48.256;16.402;2023-02-05T07:32:10;2.37;;;1.60;;
13309;SDS011;6723;48.256;16.402;2023-02-05T07:34:36;2.20;;;1.47;;
13309;SDS011;6723;48.256;16.402;2023-02-05T07:37:01;2.53;;;1.60;;
13309;SDS011;6723;48.256;16.402;2023-02-05T07:39:27;2.17;;;1.30;;
13309;SDS011;6723;48.256;16.402;2023-02-05T07:41:53;2.07;;;1.20;;
13309;SDS011;6723;48.256;16.402;2023-02-05T07:44:19;2.37;;;1.57;;
13309;SDS011;6723;48.256;16.402;2023-02-05T07:46:46;2.57;;;1.40;;
13309;SDS011;6723;48.256;16.402;2023-02-05T07:49:11;2.00;;;1.20;;
13309;SDS011;6723;48.256;16.402;2023-02-05T07:51:37;2.00;;;1.43;;
13309;SDS011;6723;48.256;16.402;2023-02-05T07:54:07;2.83;;;1.27;;
13309;SDS011;6723;48.256;16.402;2023-02-05T07:56:33;2.60;;;1.40;;
13309;SDS011;6723;48.256;16.402;2023-02-05T07:58:59;2.00;;;1.17;;
13309;SDS011;6723;48.256;16.402;2023-02-05T08:01:26;2.43;;;1.23;;
13309;SDS011;6723;48.256;16.402;2023-02-05T08:03:52;2.27;;;1.47;;
13309;SDS011;6723;48.256;16.402;2023-02-05T08:06:18;2.93;;;1.77;;
13309;SDS011;6723;48.256;16.402;2023-02-05T08:08:44;3.63;;;1.80;;
13309;SDS011;6723;48.256;16.402;2023-02-05T08:11:12;3.00;;;1.50;;
13309;SDS011;6723;48.256;16.402;2023-02-05T08:13:40;2.40;;;1.40;;
13309;SDS011;6723;48.256;16.402;2023-02-05T08:16:06;1.80;;;1.30;;
13309;SDS011;6723;48.256;16.402;2023-02-05T08:18:35;1.77;;;1.10;;
13309;SDS011;6723;48.256;16.402;2023-02-05T08:21:01;2.77;;;1.50;;
13309;SDS011;6723;48.256;16.402;2023-02-05T08:23:28;4.33;;;1.50;;
13309;SDS011;6723;48.256;16.402;2023-02-05T08:25:55;2.90;;;1.37;;
13309;SDS011;6723;48.256;16.402;2023-02-05T08:28:22;2.63;;;1.70;;
13309;SDS011;6723;48.256;16.402;2023-02-05T08:30:50;2.67;;;1.70;;
13309;SDS011;6723;48.256;16.402;2023-02-05T08:33:17;1.67;;;1.57;;
13309;SDS011;6723;48.256;16.402;2023-02-05T08:35:43;3.53;;;1.63;;
13309;SDS011;6723;48.256;16.402;2023-02-05T08:38:09;5.73;;;2.17;;
13309;SDS011;6723;48.256;16.402;2023-02-05T08:40:35;3.93;;;2.10;;
13309;SDS011;6723;48.256;16.402;2023-02-05T08:43:01;3.37;;;1.70;;
13309;SDS011;6723;48.256;16.402;2023-02-05T08:45:27;4.13;;;1.80;;
13309;SDS011;6723;48.256;16.402;2023-02-05T08:47:53;3.40;;;1.80;;
13309;SDS011;6723;48.256;16.402;2023-02-05T08:50:20;2.63;;;2.07;;
13309;SDS011;6723;48.256;16.402;2023-02-05T08:52:46;4.83;;;2.23;;
13309;SDS011;6723;48.256;16.402;2023-02-05T08:55:13;4.43;;;2.17;;
13309;SDS011;6723;48.256;16.402;2023-02-05T08:57:42;4.97;;;2.10;;
13309;SDS011;6723;48.256;16.402;2023-02-05T09:00:09;3.67;;;1.80;;
13309;SDS011;6723;48.256;16.402;2023-02-05T09:02:35;4.33;;;2.10;;
13309;SDS011;6723;48.256;16.402;2023-02-05T09:05:01;5.20;;;2.30;;
13309;SDS011;6723;48.256;16.402;2023-02-05T09:07:29;3.93;;;2.17;;
13309;SDS011;6723;48.256;16.402;2023-02-05T09:09:55;4.77;;;3.33;;
13309;SDS011;6723;48.256;16.402;2023-02-05T09:12:21;2.73;;;1.90;;
13309;SDS011;6723;48.256;16.402;2023-02-05T09:14:47;2.23;;;1.50;;
13309;SDS011;6723;48.256;16.402;2023-02-05T09:17:13;3.53;;;1.50;;
13309;SDS011;6723;48.256;16.402;2023-02-05T09:19:42;3.17;;;1.30;;
13309;SDS011;6723;48.256;16.402;2023-02-05T09:22:08;4.23;;;1.80;;
13309;SDS011;6723;48.256;16.402;2023-02-05T09:24:36;5.13;;;1.43;;
13309;SDS011;6723;48.256;16.402;2023-02-05T09:27:12;3.33;;;1.80;;
13309;SDS011;6723;48.256;16.402;2023-02-05T09:29:39;2.80;;;1.50;;
13309;SDS011;6723;48.256;16.402;2023-02-05T09:32:06;3.83;;;1.60;;
13309;SDS011;6723;48.256;16.402;2023-02-05T09:34:32;2.40;;;1.70;;
13309;SDS011;6723;48.256;16.402;2023-02-05T09:36:58;2.60;;;1.80;;
13309;SDS011;6723;48.256;16.402;2023-02-05T09:39:23;2.30;;;1.57;;
13309;SDS011;6723;48.256;16.402;2023-02-05T09:41:54;4.30;;;1.90;;
13309;SDS011;6723;48.256;16.402;2023-02-05T09:44:48;3.73;;;2.00;;
13309;SDS011;6723;48.256;16.402;2023-02-05T09:47:45;4.20;;;1.60;;
13309;SDS011;6723;48.256;16.402;2023-02-05T09:50:32;2.30;;;1.70;;
13309;SDS011;6723;48.256;16.402;2023-02-05T09:53:03;3.60;;;1.73;;
13309;SDS011;6723;48.256;16.402;2023-02-05T09:55:41;3.67;;;2.10;;
13309;SDS011;6723;48.256;16.402;2023-02-05T09:58:20;1.73;;;1.60;;
13309;SDS011;6723;48.256;16.402;2023-02-05T10:00:55;2.37;;;1.90;;
13309;SDS011;6723;48.256;16.402;2023-02-05T10:03:43;3.57;;;2.60;;
13309;SDS011;6723;48.256;16.402;2023-02-05T10:08:58;3.13;;;2.00;;
13309;SDS011;6723;48.256;16.402;2023-02-05T10:20:39;2.80;;;1.80;;
13309;SDS011;6723;48.256;16.402;2023-02-05T10:23:04;2.40;;;1.87;;
13309;SDS011;6723;48.256;16.402;2023-02-05T10:25:46;2.87;;;2.17;;
13309;SDS011;6723;48.256;16.402;2023-02-05T10:34:18;2.90;;;2.20;;
13309;SDS011;6723;48.256;16.402;2023-02-05T10:36:57;3.07;;;1.93;;
13309;SDS011;6723;48.256;16.402;2023-02-05T10:39:25;3.13;;;2.10;;
13309;SDS011;6723;48.256;16.402;2023-02-05T10:42:38;3.83;;;2.03;;
13309;SDS011;6723;48.256;16.402;2023-02-05T10:45:04;5.73;;;2.10;;
13309;SDS011;6723;48.256;16.402;2023-02-05T10:53:16;3.13;;;2.00;;
13309;SDS011;6723;48.256;16.402;2023-02-05T10:55:43;12.20;;;2.60;;
13309;SDS011;6723;48.256;16.402;2023-02-05T11:01:09;3.17;;;2.37;;
13309;SDS011;6723;48.256;16.402;2023-02-05T11:03:44;3.10;;;2.40;;
13309;SDS011;6723;48.256;16.402;2023-02-05T11:06:16;2.73;;;2.50;;
13309;SDS011;6723;48.256;16.402;2023-02-05T11:08:44;4.13;;;2.70;;
13309;SDS011;6723;48.256;16.402;2023-02-05T11:11:21;2.60;;;2.40;;
13309;SDS011;6723;48.256;16.402;2023-02-05T11:13:57;4.30;;;3.13;;
13309;SDS011;6723;48.256;16.402;2023-02-05T11:16:38;6.00;;;3.33;;
13309;SDS011;6723;48.256;16.402;2023-02-05T11:19:16;4.10;;;3.00;;
13309;SDS011;6723;48.256;16.402;2023-02-05T11:24:30;6.47;;;2.30;;
13309;SDS011;6723;48.256;16.402;2023-02-05T11:29:41;2.77;;;2.20;;
13309;SDS011;6723;48.256;16.402;2023-02-05T11:32:21;4.63;;;2.93;;
13309;SDS011;6723;48.256;16.402;2023-02-05T11:38:04;6.00;;;3.57;;
13309;SDS011;6723;48.256;16.402;2023-02-05T11:40:33;4.80;;;3.37;;
13309;SDS011;6723;48.256;16.402;2023-02-05T11:43:14;3.97;;;3.27;;
13309;SDS011;6723;48.256;16.402;2023-02-05T11:45:48;5.10;;;2.57;;
13309;SDS011;6723;48.256;16.402;2023-02-05T11:48:58;3.13;;;2.40;;
13309;SDS011;6723;48.256;16.402;2023-02-05T11:51:13;3.13;;;1.90;;
13309;SDS011;6723;48.256;16.402;2023-02-05T11:53:49;3.57;;;2.33;;
13309;SDS011;6723;48.256;16.402;2023-02-05T11:56:23;2.80;;;2.43;;
13309;SDS011;6723;48.256;16.402;2023-02-05T11:58:57;5.07;;;2.40;;
13309;SDS011;6723;48.256;16.402;2023-02-05T12:01:29;2.90;;;2.10;;
13309;SDS011;6723;48.256;16.402;2023-02-05T12:06:36;4.13;;;3.13;;
13309;SDS011;6723;48.256;16.402;2023-02-05T12:09:07;2.70;;;2.17;;
13309;SDS011;6723;48.256;16.402;2023-02-05T12:11:58;5.20;;;2.40;;
13309;SDS011;6723;48.256;16.402;2023-02-05T12:23:44;2.37;;;1.67;;
13309;SDS011;6723;48.256;16.402;2023-02-05T12:26:25;1.93;;;1.67;;
13309;SDS011;6723;48.256;16.402;2023-02-05T12:34:35;2.43;;;1.70;;
13309;SDS011;6723;48.256;16.402;2023-02-05T12:42:31;2.00;;;1.37;;
13309;SDS011;6723;48.256;16.402;2023-02-05T12:50:42;3.00;;;1.67;;
13309;SDS011;6723;48.256;16.402;2023-02-05T13:04:03;2.60;;;2.00;;
13309;SDS011;6723;48.256;16.402;2023-02-05T13:06:39;5.67;;;2.70;;
13309;SDS011;6723;48.256;16.402;2023-02-05T13:09:15;2.77;;;2.20;;
13309;SDS011;6723;48.256;16.402;2023-02-05T13:12:07;6.13;;;4.10;;
13309;SDS011;6723;48.256;16.402;2023-02-05T13:14:39;5.60;;;3.53;;
13309;SDS011;6723;48.256;16.402;2023-02-05T13:17:27;4.97;;;2.53;;
13309;SDS011;6723;48.256;16.402;2023-02-05T13:19:59;4.00;;;2.70;;
13309;SDS011;6723;48.256;16.402;2023-02-05T13:22:37;5.90;;;3.97;;
13309;SDS011;6723;48.256;16.402;2023-02-05T13:25:37;8.47;;;3.90;;
13309;SDS011;6723;48.256;16.402;2023-02-05T13:34:03;6.17;;;2.07;;
13309;SDS011;6723;48.256;16.402;2023-02-05T13:39:47;3.03;;;2.20;;
13309;SDS011;6723;48.256;16.402;2023-02-05T13:42:35;3.27;;;1.90;;
13309;SDS011;6723;48.256;16.402;2023-02-05T13:45:18;2.80;;;1.90;;
13309;SDS011;6723;48.256;16.402;2023-02-05T13:48:08;4.00;;;2.00;;
13309;SDS011;6723;48.256;16.402;2023-02-05T13:58:58;3.63;;;2.50;;
13309;SDS011;6723;48.256;16.402;2023-02-05T14:01:41;5.23;;;2.77;;
13309;SDS011;6723;48.256;16.402;2023-02-05T14:04:41;4.23;;;2.80;;
13309;SDS011;6723;48.256;16.402;2023-02-05T14:07:25;7.57;;;2.87;;
13309;SDS011;6723;48.256;16.402;2023-02-05T14:09:55;3.23;;;2.67;;
13309;SDS011;6723;48.256;16.402;2023-02-05T14:12:26;3.80;;;2.20;;
13309;SDS011;6723;48.256;16.402;2023-02-05T14:22:52;5.77;;;2.47;;
13309;SDS011;6723;48.256;16.402;2023-02-05T14:28:47;4.93;;;2.60;;
13309;SDS011;6723;48.256;16.402;2023-02-05T14:31:04;2.73;;;2.10;;
13309;SDS011;6723;48.256;16.402;2023-02-05T14:33:32;3.53;;;2.37;;
13309;SDS011;6723;48.256;16.402;2023-02-05T14:41:18;4.00;;;2.63;;
13309;SDS011;6723;48.256;16.402;2023-02-05T14:43:54;4.07;;;3.00;;
13309;SDS011;6723;48.256;16.402;2023-02-05T14:49:37;2.63;;;2.17;;
13309;SDS011;6723;48.256;16.402;2023-02-05T15:08:13;6.10;;;2.30;;
13309;SDS011;6723;48.256;16.402;2023-02-05T15:16:42;4.37;;;2.57;;
13309;SDS011;6723;48.256;16.402;2023-02-05T15:19:08;4.80;;;2.70;;
13309;SDS011;6723;48.256;16.402;2023-02-05T15:24:14;4.00;;;2.37;;
13309;SDS011;6723;48.256;16.402;2023-02-05T15:26:46;3.33;;;2.47;;
13309;SDS011;6723;48.256;16.402;2023-02-05T15:29:15;4.70;;;2.50;;
13309;SDS011;6723;48.256;16.402;2023-02-05T15:32:05;3.07;;;2.30;;
13309;SDS011;6723;48.256;16.402;2023-02-05T15:34:42;4.77;;;2.63;;
13309;SDS011;6723;48.256;16.402;2023-02-05T15:37:18;5.80;;;2.50;;
13309;SDS011;6723;48.256;16.402;2023-02-05T15:40:30;4.83;;;3.13;;
13309;SDS011;6723;48.256;16.402;2023-02-05T15:42:43;3.80;;;2.67;;
13309;SDS011;6723;48.256;16.402;2023-02-05T15:45:45;6.67;;;2.90;;
13309;SDS011;6723;48.256;16.402;2023-02-05T15:50:35;5.30;;;3.30;;
13309;SDS011;6723;48.256;16.402;2023-02-05T15:56:10;5.23;;;2.50;;
13309;SDS011;6723;48.256;16.402;2023-02-05T16:01:22;4.10;;;2.70;;
13309;SDS011;6723;48.256;16.402;2023-02-05T16:03:50;4.00;;;2.50;;
13309;SDS011;6723;48.256;16.402;2023-02-05T16:06:17;4.20;;;2.80;;
13309;SDS011;6723;48.256;16.402;2023-02-05T16:08:45;7.23;;;3.20;;
13309;SDS011;6723;48.256;16.402;2023-02-05T16:11:11;5.83;;;2.83;;
13309;SDS011;6723;48.256;16.402;2023-02-05T16:14:00;3.57;;;2.60;;
13309;SDS011;6723;48.256;16.402;2023-02-05T16:16:37;4.73;;;3.00;;
13309;SDS011;6723;48.256;16.402;2023-02-05T16:19:30;3.20;;;2.63;;
13309;SDS011;6723;48.256;16.402;2023-02-05T16:22:21;4.23;;;3.00;;
13309;SDS011;6723;48.256;16.402;2023-02-05T16:24:48;3.63;;;2.73;;
13309;SDS011;6723;48.256;16.402;2023-02-05T16:27:39;4.13;;;3.00;;
13309;SDS011;6723;48.256;16.402;2023-02-05T16:30:11;5.00;;;2.90;;
13309;SDS011;6723;48.256;16.402;2023-02-05T16:32:49;4.20;;;2.70;;
13309;SDS011;6723;48.256;16.402;2023-02-05T16:35:36;5.97;;;3.70;;
13309;SDS011;6723;48.256;16.402;2023-02-05T16:38:10;7.13;;;4.70;;
13309;SDS011;6723;48.256;16.402;2023-02-05T16:40:43;5.77;;;3.30;;
13309;SDS011;6723;48.256;16.402;2023-02-05T16:43:16;4.77;;;3.10;;
13309;SDS011;6723;48.256;16.402;2023-02-05T16:48:35;4.70;;;3.23;;
13309;SDS011;6723;48.256;16.402;2023-02-05T16:51:03;4.97;;;3.50;;
13309;SDS011;6723;48.256;16.402;2023-02-05T16:53:38;6.27;;;3.00;;
13309;SDS011;6723;48.256;16.402;2023-02-05T16:56:20;4.27;;;3.20;;
13309;SDS011;6723;48.256;16.402;2023-02-05T16:58:50;4.50;;;3.27;;
13309;SDS011;6723;48.256;16.402;2023-02-05T17:01:36;5.77;;;3.10;;
13309;SDS011;6723;48.256;16.402;2023-02-05T17:04:06;5.03;;;3.20;;
13309;SDS011;6723;48.256;16.402;2023-02-05T17:06:42;4.57;;;3.27;;
13309;SDS011;6723;48.256;16.402;2023-02-05T17:09:17;5.10;;;3.67;;
13309;SDS011;6723;48.256;16.402;2023-02-05T17:17:21;5.23;;;3.77;;
13309;SDS011;6723;48.256;16.402;2023-02-05T17:23:12;4.87;;;3.67;;
13309;SDS011;6723;48.256;16.402;2023-02-05T17:25:51;4.60;;;3.30;;
13309;SDS011;6723;48.256;16.402;2023-02-05T17:28:22;4.43;;;3.33;;
13309;SDS011;6723;48.256;16.402;2023-02-05T17:30:54;7.57;;;3.97;;
13309;SDS011;6723;48.256;16.402;2023-02-05T17:33:25;7.63;;;3.63;;
13309;SDS011;6723;48.256;16.402;2023-02-05T17:35:51;4.70;;;3.27;;
13309;SDS011;6723;48.256;16.402;2023-02-05T17:38:18;4.73;;;3.60;;
13309;SDS011;6723;48.256;16.402;2023-02-05T17:40:49;6.83;;;3.53;;
13309;SDS011;6723;48.256;16.402;2023-02-05T17:43:35;5.73;;;3.90;;
13309;SDS011;6723;48.256;16.402;2023-02-05T17:46:03;5.60;;;3.93;;
13309;SDS011;6723;48.256;16.402;2023-02-05T17:48:33;5.70;;;4.40;;
13309;SDS011;6723;48.256;16.402;2023-02-05T17:50:59;8.27;;;4.10;;
13309;SDS011;6723;48.256;16.402;2023-02-05T17:53:26;7.33;;;4.40;;
13309;SDS011;6723;48.256;16.402;2023-02-05T17:55:53;6.73;;;4.37;;
13309;SDS011;6723;48.256;16.402;2023-02-05T17:58:18;4.73;;;3.47;;
13309;SDS011;6723;48.256;16.402;2023-02-05T18:00:44;5.77;;;3.77;;
13309;SDS011;6723;48.256;16.402;2023-02-05T18:03:10;7.53;;;4.30;;
13309;SDS011;6723;48.256;16.402;2023-02-05T18:05:36;5.80;;;4.30;;
13309;SDS011;6723;48.256;16.402;2023-02-05T18:08:02;8.20;;;3.73;;
13309;SDS011;6723;48.256;16.402;2023-02-05T18:10:29;7.27;;;4.97;;
13309;SDS011;6723;48.256;16.402;2023-02-05T18:12:59;6.83;;;4.40;;
13309;SDS011;6723;48.256;16.402;2023-02-05T18:15:25;5.57;;;4.33;;
13309;SDS011;6723;48.256;16.402;2023-02-05T18:17:52;6.60;;;3.90;;